De Xin Hai — BQBP — position and weather

sailwx.info

Track history (hours):
 
Tides and Currents Weather Stations Pressure Air Temp Water Temp Dewpoint Dewpoint Depression Visibility Wind Speed Wind Dir Waves Ship Positions

De Xin Hai

Last reported at 2014-Oct-25 17:26 UTC. Time now 2014-Oct-26 09:40 UTC.
Position N 55°58' E 017°49'.

Length 225 m; draft 6.9 m.

Type: Cargo ship. MMSI: 367344200.

Date/timePositionNaut miles runAvg speedWind from/ knotsBaromVisibWave heightAir tempDewpointWater temp
2014-Oct-25 17:26N 55°58' E 017°49'8113.6
2014-Oct-25 11:28N 55°37' E 015°29'1313.8
2014-Oct-25 10:34N 55°33' E 015°08'1414.0
2014-Oct-25 09:33N 55°26' E 014°46'1413.9
2014-Oct-25 08:34N 55°17' E 014°29'1312.5
2014-Oct-25 07:33N 55°10' E 014°11'1313.3
2014-Oct-25 06:33N 55°10' E 013°47'1413.4
2014-Oct-25 05:31N 55°11' E 013°23'1313.3
2014-Oct-25 04:33N 55°13' E 013°01'1313.1
2014-Oct-25 03:33N 55°18' E 012°39'1111.1
2014-Oct-25 02:33N 55°29' E 012°41'8 8.4
2014-Oct-25 01:33N 55°37' E 012°42'1211.5
2014-Oct-25 00:33N 55°49' E 012°42'1211.6
2014-Oct-24 23:33N 56°00' E 012°40'1010.2
2014-Oct-24 22:33N 56°08' E 012°28'9 8.7
2014-Oct-24 21:33N 56°13' E 012°15'1211.5
2014-Oct-24 20:33N 56°21' E 012°01'1412.8
2014-Oct-24 19:29N 56°35' E 011°56'1212.7
2014-Oct-24 18:32N 56°46' E 011°51'1312.8
2014-Oct-24 17:33N 56°58' E 011°42'1110.7
2014-Oct-24 16:33N 57°08' E 011°36'1212.0
2014-Oct-24 15:33N 57°19' E 011°27'1111.2
2014-Oct-24 14:33N 57°30' E 011°20'1313.0
2014-Oct-24 13:33N 57°38' E 011°02'1312.9
2014-Oct-24 12:33N 57°47' E 010°44'1514.5
2014-Oct-24 11:33N 57°48' E 010°17'1514.6
2014-Oct-24 10:32N 57°47' E 009°49'37014.0
2014-Oct-23 08:12N 54°58' W 000°05'1113.9
2014-Oct-23 07:24N 54°53' W 000°23'1214.0
2014-Oct-23 06:33N 54°48' W 000°41'1313.5
2014-Oct-23 05:33N 54°43' W 001°03'6 6.1
2014-Oct-23 04:32N 54°38' W 001°09'0 0.0
2014-Oct-23 03:27N 54°38' W 001°09'0 0.0
2014-Oct-22 16:32N 54°38' W 001°09'0 0.0
2014-Oct-22 14:26N 54°38' W 001°09'0 0.0
2014-Oct-22 10:23N 54°38' W 001°09'0 0.0
2014-Oct-22 09:23N 54°38' W 001°09'0 0.0
2014-Oct-22 07:23N 54°38' W 001°09'0 0.0
2014-Oct-21 17:23N 54°38' W 001°09'0 0.0
2014-Oct-21 02:29N 54°38' W 001°09'0 0.0
2014-Oct-21 00:23N 54°38' W 001°09'0 0.0
2014-Oct-20 22:23N 54°38' W 001°09'0 0.0
2014-Oct-20 17:17N 54°38' W 001°09'0 0.0
2014-Oct-20 16:32N 54°38' W 001°09'0 0.0
2014-Oct-20 15:23N 54°38' W 001°09'0 0.0
2014-Oct-20 14:26N 54°38' W 001°09'0 0.0
2014-Oct-20 13:11N 54°38' W 001°09'0 0.0
2014-Oct-20 12:14N 54°38' W 001°09'0 0.0
2014-Oct-20 11:29N 54°38' W 001°09'0 0.0
2014-Oct-20 10:26N 54°38' W 001°09'0 0.0
2014-Oct-20 09:29N 54°38' W 001°09'0 0.0
2014-Oct-20 08:29N 54°38' W 001°09'0 0.0
2014-Oct-20 07:32N 54°38' W 001°09'0 0.0
2014-Oct-20 06:14N 54°38' W 001°09'1 2.2
2014-Oct-20 05:34N 54°39' W 001°08'7 7.2
2014-Oct-20 04:33N 54°45' W 001°02'3 3.3
2014-Oct-20 03:31N 54°48' W 001°00'6 6.2
2014-Oct-20 02:33N 54°54' W 001°00'1211.7
2014-Oct-20 01:33N 55°06' W 001°00'141 8.1
2014-Oct-19 08:13N 57°27' W 001°00'6 9.6
2014-Oct-19 07:34N 57°33' W 001°02'1010.2
2014-Oct-19 06:34N 57°41' W 001°14'10 9.9
2014-Oct-19 05:34N 57°48' W 001°26'10 9.7
2014-Oct-19 04:33N 57°56' W 001°38'51 9.7
2014-Oct-18 23:20N 58°32' W 002°45'8 9.9
2014-Oct-18 22:34N 58°37' W 002°55'9 9.4
2014-Oct-18 21:34N 58°44' W 003°09'1211.6
2014-Oct-18 20:33N 58°45' W 003°31'1212.4
2014-Oct-18 19:33N 58°44' W 003°55'1312.7
2014-Oct-18 18:33N 58°44' W 004°19'  
Track history (hours):
 
Tides and Currents Weather Stations Pressure Air Temp Water Temp Dewpoint Dewpoint Depression Visibility Wind Speed Wind Dir Waves Ship Positions

De Xin Hai

Last reported at 2014-Oct-25 17:26 UTC. Time now 2014-Oct-26 09:40 UTC.
Position N 55°58' E 017°49'.

Length 225 m; draft 6.9 m.

Type: Cargo ship. MMSI: 367344200.

Date/timePositionNaut miles runAvg speedWind from/ knotsBaromVisibWave heightAir tempDewpointWater temp
2014-Oct-25 17:26N 55°58' E 017°49'8113.6
2014-Oct-25 11:28N 55°37' E 015°29'1313.8
2014-Oct-25 10:34N 55°33' E 015°08'1414.0
2014-Oct-25 09:33N 55°26' E 014°46'1413.9
2014-Oct-25 08:34N 55°17' E 014°29'1312.5
2014-Oct-25 07:33N 55°10' E 014°11'1313.3
2014-Oct-25 06:33N 55°10' E 013°47'1413.4
2014-Oct-25 05:31N 55°11' E 013°23'1313.3
2014-Oct-25 04:33N 55°13' E 013°01'1313.1
2014-Oct-25 03:33N 55°18' E 012°39'1111.1
2014-Oct-25 02:33N 55°29' E 012°41'8 8.4
2014-Oct-25 01:33N 55°37' E 012°42'1211.5
2014-Oct-25 00:33N 55°49' E 012°42'1211.6
2014-Oct-24 23:33N 56°00' E 012°40'1010.2
2014-Oct-24 22:33N 56°08' E 012°28'9 8.7
2014-Oct-24 21:33N 56°13' E 012°15'1211.5
2014-Oct-24 20:33N 56°21' E 012°01'1412.8
2014-Oct-24 19:29N 56°35' E 011°56'1212.7
2014-Oct-24 18:32N 56°46' E 011°51'1312.8
2014-Oct-24 17:33N 56°58' E 011°42'1110.7
2014-Oct-24 16:33N 57°08' E 011°36'1212.0
2014-Oct-24 15:33N 57°19' E 011°27'1111.2
2014-Oct-24 14:33N 57°30' E 011°20'1313.0
2014-Oct-24 13:33N 57°38' E 011°02'1312.9
2014-Oct-24 12:33N 57°47' E 010°44'1514.5
2014-Oct-24 11:33N 57°48' E 010°17'1514.6
2014-Oct-24 10:32N 57°47' E 009°49'37014.0
2014-Oct-23 08:12N 54°58' W 000°05'1113.9
2014-Oct-23 07:24N 54°53' W 000°23'1214.0
2014-Oct-23 06:33N 54°48' W 000°41'1313.5
2014-Oct-23 05:33N 54°43' W 001°03'6 6.1
2014-Oct-23 04:32N 54°38' W 001°09'0 0.0
2014-Oct-23 03:27N 54°38' W 001°09'0 0.0
2014-Oct-22 16:32N 54°38' W 001°09'0 0.0
2014-Oct-22 14:26N 54°38' W 001°09'0 0.0
2014-Oct-22 10:23N 54°38' W 001°09'0 0.0
2014-Oct-22 09:23N 54°38' W 001°09'0 0.0
2014-Oct-22 07:23N 54°38' W 001°09'0 0.0
2014-Oct-21 17:23N 54°38' W 001°09'0 0.0
2014-Oct-21 02:29N 54°38' W 001°09'0 0.0
2014-Oct-21 00:23N 54°38' W 001°09'0 0.0
2014-Oct-20 22:23N 54°38' W 001°09'0 0.0
2014-Oct-20 17:17N 54°38' W 001°09'0 0.0
2014-Oct-20 16:32N 54°38' W 001°09'0 0.0
2014-Oct-20 15:23N 54°38' W 001°09'0 0.0
2014-Oct-20 14:26N 54°38' W 001°09'0 0.0
2014-Oct-20 13:11N 54°38' W 001°09'0 0.0
2014-Oct-20 12:14N 54°38' W 001°09'0 0.0
2014-Oct-20 11:29N 54°38' W 001°09'0 0.0
2014-Oct-20 10:26N 54°38' W 001°09'0 0.0
2014-Oct-20 09:29N 54°38' W 001°09'0 0.0
2014-Oct-20 08:29N 54°38' W 001°09'0 0.0
2014-Oct-20 07:32N 54°38' W 001°09'0 0.0
2014-Oct-20 06:14N 54°38' W 001°09'1 2.2
2014-Oct-20 05:34N 54°39' W 001°08'7 7.2
2014-Oct-20 04:33N 54°45' W 001°02'3 3.3
2014-Oct-20 03:31N 54°48' W 001°00'6 6.2
2014-Oct-20 02:33N 54°54' W 001°00'1211.7
2014-Oct-20 01:33N 55°06' W 001°00'141 8.1
2014-Oct-19 08:13N 57°27' W 001°00'6 9.6
2014-Oct-19 07:34N 57°33' W 001°02'1010.2
2014-Oct-19 06:34N 57°41' W 001°14'10 9.9
2014-Oct-19 05:34N 57°48' W 001°26'10 9.7
2014-Oct-19 04:33N 57°56' W 001°38'51 9.7
2014-Oct-18 23:20N 58°32' W 002°45'8 9.9
2014-Oct-18 22:34N 58°37' W 002°55'9 9.4
2014-Oct-18 21:34N 58°44' W 003°09'1211.6
2014-Oct-18 20:33N 58°45' W 003°31'1212.4
2014-Oct-18 19:33N 58°44' W 003°55'1312.7
2014-Oct-18 18:33N 58°44' W 004°19'  

Dump ship's entire track history